Time;durP1;ratioP1;P1;durP2;ratioP2;P2;SDS_P1;SDS_P2;PMS_P1;PMS_P2;Temp;Humidity;BMP_temperature;BMP_pressure;BME280_temperature;BME280_humidity;BME280_pressure;Samples;Min_cycle;Max_cycle;Signal;HPM_P1;HPM_P2
2021/04/03 00:00:59;;;;;;;;;;;;;;;22.42;28.00;97359.47;5044894;28;1903;-78
2021/04/03 00:03:24;;;;;;;;;;;;;;;22.51;27.92;97362.34;5043792;28;698;-79
2021/04/03 00:05:50;;;;;;;;;;;;;;;22.05;28.24;97358.47;5043991;28;719;-78
2021/04/03 00:08:16;;;;;;;;;;;;;;;21.95;28.20;97354.00;5042156;28;873;-78
2021/04/03 00:10:48;;;;;;;;;;;;;;;21.80;28.30;97362.25;5042997;28;920;-77
2021/04/03 00:13:14;;;;;;;;;;;;;;;21.82;28.51;97356.94;5043014;28;1028;-78
2021/04/03 00:15:39;;;;;;;;;;;;;;;21.84;28.75;97349.53;5043627;28;739;-77
2021/04/03 00:18:05;;;;;;;;;;;;;;;21.79;28.51;97347.31;5043850;28;698;-76
2021/04/03 00:20:31;;;;;;;;;;;;;;;21.66;29.16;97354.28;5044135;28;1894;-78
2021/04/03 00:22:56;;;;;;;;;;;;;;;21.73;29.13;97346.34;5043451;28;967;-78
2021/04/03 00:25:22;;;;;;;;;;;;;;;21.72;29.09;97347.59;5043235;28;914;-78
2021/04/03 00:27:47;;;;;;;;;;;;;;;21.75;28.81;97338.16;5043843;28;850;-78
2021/04/03 00:30:18;;;;;;;;;;;;;;;21.70;28.97;97337.97;5043261;28;1064;-78
2021/04/03 00:32:59;;;;;;;;;;;;;;;21.61;29.35;97347.19;5043013;28;623;-77
2021/04/03 00:35:26;;;;;;;;;;;;;;;21.57;29.35;97363.53;5043760;28;677;-77
2021/04/03 00:37:51;;;;;;;;;;;;;;;21.72;28.90;97356.09;5042889;28;651;-77
2021/04/03 00:40:18;;;;;;;;;;;;;;;21.76;29.09;97365.25;5043020;28;1965;-78
2021/04/03 00:42:43;;;;;;;;;;;;;;;21.76;29.08;97353.91;5042293;28;930;-77
2021/04/03 00:45:09;;;;;;;;;;;;;;;22.19;28.55;97345.84;5042482;28;885;-78
2021/04/03 00:47:34;;;;;;;;;;;;;;;22.44;27.92;97350.53;5043504;28;845;-78
2021/04/03 00:50:00;;;;;;;;;;;;;;;22.44;27.60;97347.69;5042818;28;627;-78
2021/04/03 00:52:25;;;;;;;;;;;;;;;21.95;28.37;97337.03;5042749;28;931;-77
2021/04/03 00:54:51;;;;;;;;;;;;;;;21.88;28.62;97342.97;5042691;28;811;-78
2021/04/03 00:57:17;;;;;;;;;;;;;;;21.83;28.65;97342.31;5042418;28;883;-78
2021/04/03 01:00:15;;;;;;;;;;;;;;;21.68;28.84;97363.91;5042804;28;1910;-77
2021/04/03 01:02:44;;;;;;;;;;;;;;;21.77;29.07;97361.16;5026835;28;1861;-78
2021/04/03 01:05:11;;;;;;;;;;;;;;;21.74;28.96;97366.94;5041728;28;1356;-78
2021/04/03 01:07:37;;;;;;;;;;;;;;;21.59;29.20;97366.66;5043102;28;661;-78
2021/04/03 01:10:35;;;;;;;;;;;;;;;21.67;29.01;97356.69;5043110;28;904;-78
2021/04/03 01:13:51;;;;;;;;;;;;;;;21.70;29.11;97344.41;5041732;28;852;-78
2021/04/03 01:16:28;;;;;;;;;;;;;;;21.58;28.99;97359.44;5042668;28;1225;-78
2021/04/03 01:19:16;;;;;;;;;;;;;;;21.67;29.51;97365.16;5041813;28;1336;-78
2021/04/03 01:22:00;;;;;;;;;;;;;;;22.28;28.62;97360.84;5043462;28;666;-77
2021/04/03 01:24:38;;;;;;;;;;;;;;;22.57;27.75;97368.97;5042102;28;926;-78
2021/04/03 01:27:13;;;;;;;;;;;;;;;22.29;27.88;97376.59;5041999;28;845;-78
2021/04/03 01:29:48;;;;;;;;;;;;;;;22.04;28.37;97371.84;5042378;28;962;-78
2021/04/03 01:32:16;;;;;;;;;;;;;;;21.98;28.74;97364.44;5042504;28;660;-77
2021/04/03 01:34:42;;;;;;;;;;;;;;;21.70;28.97;97364.22;5041516;28;1134;-78
2021/04/03 01:37:16;;;;;;;;;;;;;;;21.62;29.33;97365.75;5042769;28;678;-78
2021/04/03 01:39:42;;;;;;;;;;;;;;;21.68;29.15;97368.78;5042516;28;1984;-77
2021/04/03 01:42:09;;;;;;;;;;;;;;;21.73;28.90;97380.31;5025447;28;1270;-78
2021/04/03 01:44:48;;;;;;;;;;;;;;;21.71;28.80;97374.34;5041744;28;868;-78
2021/04/03 01:47:17;;;;;;;;;;;;;;;21.72;29.17;97364.56;5041859;28;1016;-77
2021/04/03 01:49:43;;;;;;;;;;;;;;;21.59;29.24;97358.19;5041319;28;626;-78
2021/04/03 01:52:11;;;;;;;;;;;;;;;21.63;29.11;97360.88;5025984;28;1337;-78
2021/04/03 01:54:37;;;;;;;;;;;;;;;22.06;28.67;97360.06;5024738;28;1332;-77
2021/04/03 01:57:05;;;;;;;;;;;;;;;22.35;28.20;97363.38;5025583;28;1323;-78
2021/04/03 01:59:43;;;;;;;;;;;;;;;22.59;27.83;97375.00;5040841;28;1902;-78
2021/04/03 02:02:11;;;;;;;;;;;;;;;22.26;27.99;97356.88;5025959;28;1148;-78
2021/04/03 02:04:37;;;;;;;;;;;;;;;22.09;28.16;97359.13;5041178;28;647;-78
2021/04/03 02:07:04;;;;;;;;;;;;;;;21.94;28.24;97360.94;5025838;28;1320;-77
2021/04/03 02:09:49;;;;;;;;;;;;;;;21.71;28.91;97374.34;5040885;28;1079;-78
2021/04/03 02:12:29;;;;;;;;;;;;;;;21.70;28.82;97367.06;5027078;28;1160;-77
2021/04/03 02:15:09;;;;;;;;;;;;;;;21.84;28.85;97351.59;5026339;28;1238;-78
2021/04/03 02:17:35;;;;;;;;;;;;;;;21.69;29.03;97354.16;5041912;28;1155;-77
2021/04/03 02:20:02;;;;;;;;;;;;;;;21.70;29.07;97371.94;5041188;28;1902;-77
2021/04/03 02:22:28;;;;;;;;;;;;;;;21.66;29.24;97393.94;5041885;28;639;-78
2021/04/03 02:25:05;;;;;;;;;;;;;;;21.79;28.74;97380.50;5041670;28;681;-77
2021/04/03 02:27:31;;;;;;;;;;;;;;;21.76;28.78;97376.56;5041429;28;1155;-78
2021/04/03 02:30:12;;;;;;;;;;;;;;;21.74;28.97;97373.38;5040371;28;1344;-77
2021/04/03 02:32:42;;;;;;;;;;;;;;;21.73;29.15;97354.03;5041356;28;607;-78
2021/04/03 02:38:34;;;;;;;;;;;;;;;22.10;28.43;97355.03;4982320;28;1160;-78
2021/04/03 02:41:57;;;;;;;;;;;;;;;22.51;27.63;97367.22;4985695;28;649;-77
2021/04/03 02:44:51;;;;;;;;;;;;;;;22.29;27.83;97362.41;4983688;28;1232;-77
2021/04/03 02:47:37;;;;;;;;;;;;;;;21.78;28.54;97379.72;4985421;28;941;-77
2021/04/03 02:50:13;;;;;;;;;;;;;;;21.69;28.55;97396.63;4985365;28;1236;-78
2021/04/03 02:52:48;;;;;;;;;;;;;;;21.66;28.96;97391.91;5004476;28;681;-77
2021/04/03 02:55:18;;;;;;;;;;;;;;;21.66;28.97;97391.91;4972441;28;1181;-77
2021/04/03 02:57:47;;;;;;;;;;;;;;;21.78;28.68;97385.38;4988343;28;890;-78
2021/04/03 03:00:13;;;;;;;;;;;;;;;21.76;29.05;97376.56;4972019;28;1908;-77
2021/04/03 03:02:39;;;;;;;;;;;;;;;21.77;29.05;97386.63;4988873;28;1052;-77
2021/04/03 03:05:06;;;;;;;;;;;;;;;21.64;29.09;97385.91;5004439;28;654;-78
2021/04/03 03:07:32;;;;;;;;;;;;;;;21.58;29.04;97387.75;4988688;28;674;-78
2021/04/03 03:09:58;;;;;;;;;;;;;;;21.67;28.85;97379.31;4987777;28;895;-77
2021/04/03 03:12:26;;;;;;;;;;;;;;;21.99;28.77;97383.00;4988532;28;883;-77
2021/04/03 03:14:54;;;;;;;;;;;;;;;22.43;27.81;97388.59;4978227;28;1215;-77
2021/04/03 03:17:21;;;;;;;;;;;;;;;22.38;27.84;97386.38;5044838;28;1309;-77
2021/04/03 03:19:51;;;;;;;;;;;;;;;21.97;28.39;97368.53;5028358;28;1898;-78
2021/04/03 03:22:17;;;;;;;;;;;;;;;21.69;28.60;97365.50;5044590;28;658;-77
2021/04/03 03:24:43;;;;;;;;;;;;;;;21.75;28.58;97366.47;5044213;28;682;-76
2021/04/03 03:27:11;;;;;;;;;;;;;;;21.77;28.85;97366.81;5043787;28;808;-77
2021/04/03 03:29:39;;;;;;;;;;;;;;;21.75;28.62;97379.84;5043117;28;1154;-77
2021/04/03 03:32:05;;;;;;;;;;;;;;;21.69;28.75;97376.03;5027914;28;1215;-77
2021/04/03 03:34:31;;;;;;;;;;;;;;;21.76;28.73;97375.75;5043755;28;666;-77
2021/04/03 03:36:59;;;;;;;;;;;;;;;21.77;28.71;97383.81;5044039;28;1361;-77
2021/04/03 03:39:28;;;;;;;;;;;;;;;21.67;28.77;97385.00;5043569;28;1969;-78
2021/04/03 03:41:56;;;;;;;;;;;;;;;21.66;29.06;97388.25;5043967;28;872;-78
2021/04/03 03:44:22;;;;;;;;;;;;;;;21.72;28.72;97390.06;5043225;28;907;-77
2021/04/03 03:46:49;;;;;;;;;;;;;;;21.75;28.85;97391.94;5044205;28;809;-77
2021/04/03 03:49:15;;;;;;;;;;;;;;;21.73;28.87;97400.13;5032928;28;1107;-77
2021/04/03 03:51:40;;;;;;;;;;;;;;;21.74;28.81;97401.72;5024412;28;1147;-78
2021/04/03 03:54:11;;;;;;;;;;;;;;;21.72;28.88;97401.38;5024259;28;1024;-77
2021/04/03 03:56:36;;;;;;;;;;;;;;;21.56;29.19;97395.91;5024382;28;833;-78
2021/04/03 03:59:02;;;;;;;;;;;;;;;21.59;29.17;97394.97;5023898;28;826;-77
2021/04/03 04:01:28;;;;;;;;;;;;;;;22.23;28.00;97403.97;5024349;28;1906;-77
2021/04/03 04:03:54;;;;;;;;;;;;;;;22.56;27.50;97398.59;5022911;28;638;-77
2021/04/03 04:06:21;;;;;;;;;;;;;;;22.67;27.01;97401.00;5024748;28;638;-78
2021/04/03 04:08:50;;;;;;;;;;;;;;;22.13;27.64;97393.03;5022869;28;1182;-79
2021/04/03 04:11:18;;;;;;;;;;;;;;;21.93;27.94;97396.97;5023751;28;1333;-78
2021/04/03 04:13:47;;;;;;;;;;;;;;;21.85;28.29;97402.09;5023262;28;848;-77
2021/04/03 04:16:18;;;;;;;;;;;;;;;21.84;28.39;97411.06;5024540;28;873;-77
2021/04/03 04:18:44;;;;;;;;;;;;;;;21.84;28.31;97411.84;5023091;28;1293;-77
2021/04/03 04:21:14;;;;;;;;;;;;;;;21.84;28.39;97409.03;5024379;28;1898;-77
2021/04/03 04:23:41;;;;;;;;;;;;;;;21.91;28.53;97410.78;5023273;28;714;-78
2021/04/03 04:26:08;;;;;;;;;;;;;;;21.81;28.51;97415.63;5024160;28;1183;-78
2021/04/03 04:28:34;;;;;;;;;;;;;;;21.78;28.68;97413.69;5022207;28;1203;-77
2021/04/03 04:31:01;;;;;;;;;;;;;;;21.75;28.55;97403.28;5023821;28;1023;-77
2021/04/03 04:33:33;;;;;;;;;;;;;;;21.63;28.76;97412.63;5022616;28;720;-77
2021/04/03 04:36:00;;;;;;;;;;;;;;;21.69;28.77;97410.78;5040420;28;1435;-76
2021/04/03 04:38:30;;;;;;;;;;;;;;;21.70;28.89;97412.38;5039100;28;1307;-78
2021/04/03 04:40:57;;;;;;;;;;;;;;;21.64;29.10;97419.88;5023795;28;1898;-76
2021/04/03 04:43:25;;;;;;;;;;;;;;;21.58;28.83;97410.38;5022859;28;937;-77
2021/04/03 04:45:53;;;;;;;;;;;;;;;21.63;28.85;97412.63;5022905;28;1282;-77
2021/04/03 04:48:24;;;;;;;;;;;;;;;21.74;28.90;97409.41;5022339;28;1130;-77
2021/04/03 04:50:58;;;;;;;;;;;;;;;22.27;27.90;97415.94;5023246;28;760;-76
2021/04/03 04:53:25;;;;;;;;;;;;;;;22.59;27.42;97411.84;5021986;28;1132;-77
2021/04/03 04:55:54;;;;;;;;;;;;;;;22.44;27.09;97412.88;5022682;28;1394;-77
2021/04/03 04:58:21;;;;;;;;;;;;;;;22.07;27.97;97406.97;5038312;28;1274;-77
2021/04/03 05:00:47;;;;;;;;;;;;;;;21.75;28.29;97414.59;5038987;28;1910;-77
2021/04/03 05:03:18;;;;;;;;;;;;;;;21.76;28.54;97410.56;5022592;28;623;-78
2021/04/03 05:05:44;;;;;;;;;;;;;;;21.70;28.53;97418.03;5022878;28;658;-76
